createdAt,value
2023-03-26T00:02:43.818Z,99759.58
2023-03-26T00:06:05.179Z,99757.56
2023-03-26T00:09:23.511Z,99761.83
2023-03-26T00:12:21.709Z,99759.61
2023-03-26T00:15:33.329Z,99760.63
2023-03-26T00:18:55.384Z,99759.80
2023-03-26T00:22:07.218Z,99760.11
2023-03-26T00:25:04.262Z,99762.64
2023-03-26T00:27:41.835Z,99770.33
2023-03-26T00:30:19.861Z,99770.11
2023-03-26T00:33:16.272Z,99765.44
2023-03-26T00:36:16.848Z,99769.80
2023-03-26T00:38:59.538Z,99773.53
2023-03-26T00:42:08.481Z,99772.55
2023-03-26T00:45:27.279Z,99767.28
2023-03-26T00:49:08.903Z,99770.33
2023-03-26T00:52:29.031Z,99777.70
2023-03-26T00:55:40.512Z,99779.88
2023-03-26T00:58:55.052Z,99777.22
2023-03-26T01:01:34.488Z,99781.81
2023-03-26T01:04:39.182Z,99780.80
2023-03-26T01:07:32.997Z,99782.02
2023-03-26T01:10:22.826Z,99782.14
2023-03-26T01:12:55.070Z,99789.02
2023-03-26T01:15:40.108Z,99791.58
2023-03-26T01:19:10.214Z,99792.40
2023-03-26T01:22:14.830Z,99797.02
2023-03-26T01:24:56.853Z,99799.60
2023-03-26T01:28:16.384Z,99801.05
2023-03-26T01:31:37.217Z,99805.70
2023-03-26T01:34:44.329Z,99807.05
2023-03-26T01:38:21.122Z,99808.30
2023-03-26T01:41:31.897Z,99805.39
2023-03-26T01:44:51.676Z,99798.40
2023-03-26T01:47:24.307Z,99799.20
2023-03-26T01:49:52.902Z,99802.69
2023-03-26T01:52:25.369Z,99810.44
2023-03-26T01:55:02.949Z,99805.10
2023-03-26T01:57:37.149Z,99809.79
2023-03-26T02:00:12.321Z,99806.57
2023-03-26T02:02:55.285Z,99805.73
2023-03-26T02:05:38.022Z,99805.34
2023-03-26T02:08:27.148Z,99796.23
2023-03-26T02:11:13.192Z,99795.44
2023-03-26T02:13:45.184Z,99797.25
2023-03-26T02:16:17.019Z,99798.34
2023-03-26T02:18:51.646Z,99801.11
2023-03-26T02:21:29.021Z,99796.23
2023-03-26T02:24:03.589Z,99795.50
2023-03-26T02:26:37.865Z,99799.66
2023-03-26T02:29:09.798Z,99803.86
2023-03-26T02:31:39.239Z,99807.77
2023-03-26T02:34:08.072Z,99812.29
2023-03-26T02:36:38.525Z,99810.07
2023-03-26T02:39:11.301Z,99814.05
2023-03-26T02:41:41.046Z,99813.85
2023-03-26T02:44:22.103Z,99817.84
2023-03-26T02:46:59.396Z,99816.98
2023-03-26T02:49:51.126Z,99811.67
2023-03-26T02:52:31.859Z,99809.55
2023-03-26T02:55:00.609Z,99810.11
2023-03-26T02:57:29.743Z,99808.05
2023-03-26T02:59:58.063Z,99811.20
2023-03-26T03:02:38.969Z,99811.89
2023-03-26T03:05:28.764Z,99814.74
2023-03-26T03:08:18.551Z,99817.95
2023-03-26T03:11:11.246Z,99815.88
2023-03-26T03:13:49.734Z,99813.48
2023-03-26T03:16:21.580Z,99810.52
2023-03-26T03:18:54.805Z,99813.91
2023-03-26T03:21:26.155Z,99813.95
2023-03-26T03:23:59.846Z,99814.16
2023-03-26T03:26:30.863Z,99816.10
2023-03-26T03:29:03.671Z,99812.26
2023-03-26T03:31:32.271Z,99810.10
2023-03-26T03:34:04.279Z,99807.22
2023-03-26T03:36:38.711Z,99810.74
2023-03-26T03:39:19.244Z,99815.02
2023-03-26T03:41:49.605Z,99815.39
2023-03-26T03:44:18.348Z,99819.10
2023-03-26T03:46:49.369Z,99820.23
2023-03-26T03:49:17.988Z,99823.94
2023-03-26T03:51:46.660Z,99830.65
2023-03-26T03:54:23.138Z,99838.09
2023-03-26T03:57:03.832Z,99832.92
2023-03-26T03:59:38.168Z,99829.80
2023-03-26T04:02:26.635Z,99828.41
2023-03-26T04:04:58.861Z,99826.88
2023-03-26T04:07:33.237Z,99831.14
2023-03-26T04:10:15.395Z,99829.92
2023-03-26T04:13:14.608Z,99838.61
2023-03-26T04:16:03.582Z,99838.93
2023-03-26T04:18:32.627Z,99841.94
2023-03-26T04:21:08.249Z,99842.66
2023-03-26T04:23:36.647Z,99848.38
2023-03-26T04:26:18.768Z,99852.45
2023-03-26T04:29:17.267Z,99860.41
2023-03-26T04:31:50.616Z,99860.14
2023-03-26T04:34:26.675Z,99866.35
2023-03-26T04:37:03.652Z,99871.67
2023-03-26T04:39:36.416Z,99872.91
2023-03-26T04:42:33.617Z,99881.45
2023-03-26T04:45:10.124Z,99888.06
2023-03-26T04:47:39.894Z,99902.10
2023-03-26T04:50:11.426Z,99905.75
2023-03-26T04:52:45.101Z,99914.72
2023-03-26T04:56:19.854Z,99917.90
2023-03-26T04:59:13.978Z,99923.11
2023-03-26T05:01:46.099Z,99914.80
2023-03-26T05:04:17.393Z,99914.65
2023-03-26T05:06:45.864Z,99910.77
2023-03-26T05:09:34.466Z,99912.73
2023-03-26T05:12:23.820Z,99913.83
2023-03-26T05:14:56.134Z,99913.44
2023-03-26T05:17:35.066Z,99912.64
2023-03-26T05:20:06.887Z,99912.30
2023-03-26T05:22:38.838Z,99916.52
2023-03-26T05:25:30.581Z,99917.69
2023-03-26T05:28:02.127Z,99919.13
2023-03-26T05:30:40.316Z,99916.20
2023-03-26T05:33:08.900Z,99922.59
2023-03-26T05:35:43.555Z,99925.89
2023-03-26T05:38:31.037Z,99927.53
2023-03-26T05:41:21.976Z,99932.20
2023-03-26T05:44:19.436Z,99938.02
2023-03-26T05:47:27.670Z,99946.46
2023-03-26T05:50:26.726Z,99950.62
2023-03-26T05:53:23.316Z,99953.70
2023-03-26T05:56:27.287Z,99956.34
2023-03-26T05:59:22.649Z,99959.37
2023-03-26T06:02:10.755Z,99962.70
2023-03-26T06:04:58.053Z,99966.53
2023-03-26T06:07:55.897Z,99970.16
2023-03-26T06:10:25.216Z,99970.40
2023-03-26T06:13:26.918Z,99967.13
2023-03-26T06:16:07.002Z,99968.63
2023-03-26T06:18:58.674Z,99968.30
2023-03-26T06:21:36.626Z,99972.94
2023-03-26T06:24:34.643Z,99979.66
2023-03-26T06:27:21.434Z,99980.80
2023-03-26T06:29:56.067Z,99980.04
2023-03-26T06:32:46.596Z,99978.88
2023-03-26T06:35:20.703Z,99983.25
2023-03-26T06:37:52.585Z,99978.80
2023-03-26T06:40:21.267Z,99979.86
2023-03-26T06:43:11.113Z,99980.98
2023-03-26T06:45:53.727Z,99979.61
2023-03-26T06:48:42.806Z,99981.61
2023-03-26T06:51:29.660Z,99985.00
2023-03-26T06:54:16.852Z,99984.83
2023-03-26T06:56:50.886Z,100000.76
2023-03-26T06:59:38.377Z,100012.34
2023-03-26T07:02:25.727Z,100013.36
2023-03-26T07:05:14.273Z,100011.80
2023-03-26T07:08:04.430Z,99998.64
2023-03-26T07:10:51.570Z,99999.82
2023-03-26T07:13:40.346Z,99997.11
2023-03-26T07:16:30.944Z,99999.19
2023-03-26T07:19:16.222Z,99995.02
2023-03-26T07:21:46.901Z,99992.84
2023-03-26T07:24:43.717Z,99986.23
2023-03-26T07:27:51.845Z,99983.09
2023-03-26T07:31:02.924Z,99978.55
2023-03-26T07:34:22.633Z,99973.27
2023-03-26T07:38:09.574Z,99975.86
2023-03-26T07:40:56.573Z,99990.59
2023-03-26T07:44:34.096Z,99986.48
2023-03-26T07:48:03.854Z,99976.79
2023-03-26T07:50:53.438Z,99983.21
2023-03-26T07:53:45.259Z,99977.33
2023-03-26T07:56:42.850Z,99973.91
2023-03-26T07:59:44.913Z,99971.39
2023-03-26T08:02:49.372Z,99975.27
2023-03-26T08:05:31.086Z,99976.42
2023-03-26T08:08:23.121Z,99978.16
2023-03-26T08:11:34.101Z,99979.29
2023-03-26T08:14:21.977Z,99975.60
2023-03-26T08:17:11.801Z,99979.41
2023-03-26T08:20:11.685Z,99979.20
2023-03-26T08:22:50.999Z,99980.36
2023-03-26T08:26:24.196Z,99980.09
2023-03-26T08:29:45.352Z,99978.33
2023-03-26T08:32:31.653Z,99974.75
2023-03-26T08:35:13.643Z,99975.36
2023-03-26T08:38:32.850Z,99963.98
2023-03-26T08:41:50.400Z,99965.35
2023-03-26T08:45:28.303Z,99958.14
2023-03-26T08:49:31.462Z,99956.52
2023-03-26T08:52:17.883Z,99953.13
2023-03-26T08:55:24.261Z,99944.35
2023-03-26T08:58:44.495Z,99939.42
2023-03-26T09:01:54.091Z,99929.27
2023-03-26T09:05:07.194Z,99930.11
2023-03-26T09:09:01.391Z,99923.27
2023-03-26T09:13:14.695Z,99919.24
2023-03-26T09:17:03.452Z,99918.58
2023-03-26T09:20:56.049Z,99912.69
2023-03-26T09:24:41.664Z,99917.30
2023-03-26T09:28:55.961Z,99917.23
2023-03-26T09:32:42.593Z,99919.73
2023-03-26T09:36:44.196Z,99925.49
2023-03-26T09:39:32.299Z,99923.96
2023-03-26T09:42:58.653Z,99926.88
2023-03-26T09:45:53.156Z,99923.42
2023-03-26T09:48:42.327Z,99918.88
2023-03-26T09:51:48.841Z,99919.56
2023-03-26T09:54:48.793Z,99922.95
2023-03-26T09:58:47.220Z,99920.08
2023-03-26T10:02:46.781Z,99922.63
2023-03-26T10:06:25.347Z,99920.89
2023-03-26T10:09:30.079Z,99924.23
2023-03-26T10:12:33.858Z,99922.27
2023-03-26T10:15:23.424Z,99920.19
2023-03-26T10:18:27.804Z,99921.86
2023-03-26T10:21:37.219Z,99915.05
2023-03-26T10:25:10.041Z,99909.39
2023-03-26T10:28:23.589Z,99909.14
2023-03-26T10:31:57.782Z,99910.02
2023-03-26T10:34:53.275Z,99917.05
2023-03-26T10:38:26.250Z,99911.95
2023-03-26T10:41:52.839Z,99912.44
2023-03-26T10:44:59.997Z,99907.02
2023-03-26T10:48:20.979Z,99896.72
2023-03-26T10:51:55.824Z,99883.40
2023-03-26T10:55:08.027Z,99876.70
2023-03-26T10:58:18.098Z,99872.44
2023-03-26T11:01:29.457Z,99871.05
2023-03-26T11:04:32.236Z,99864.44
2023-03-26T11:08:08.267Z,99862.84
2023-03-26T11:11:17.907Z,99854.61
2023-03-26T11:14:47.027Z,99852.13
2023-03-26T11:18:38.605Z,99844.77
2023-03-26T11:22:13.288Z,99843.13
2023-03-26T11:26:02.582Z,99838.50
2023-03-26T11:29:32.134Z,99833.25
2023-03-26T11:33:17.142Z,99831.31
2023-03-26T11:36:49.787Z,99823.48
2023-03-26T11:40:39.128Z,99827.04
2023-03-26T11:44:27.670Z,99823.73
2023-03-26T11:48:14.389Z,99817.15
2023-03-26T11:51:54.837Z,99810.85
2023-03-26T11:55:17.036Z,99806.92
2023-03-26T11:59:10.255Z,99810.73
2023-03-26T12:02:40.220Z,99802.59
2023-03-26T12:06:29.767Z,99804.89
2023-03-26T12:10:19.526Z,99798.63
2023-03-26T12:14:07.816Z,99802.38
2023-03-26T12:18:06.338Z,99799.09
2023-03-26T12:21:55.886Z,99793.46
2023-03-26T12:25:54.446Z,99794.48
2023-03-26T12:29:40.601Z,99800.86
2023-03-26T12:33:32.281Z,99802.70
2023-03-26T12:37:08.225Z,99809.28
2023-03-26T12:41:07.536Z,99801.77
2023-03-26T12:45:04.100Z,99804.61
2023-03-26T12:48:42.569Z,99808.63
2023-03-26T12:52:50.866Z,99801.91
2023-03-26T12:56:40.345Z,99801.09
2023-03-26T13:00:44.450Z,99803.90
2023-03-26T13:04:40.315Z,99819.30
2023-03-26T13:08:28.206Z,99847.32
2023-03-26T13:11:24.058Z,99893.91
2023-03-26T13:14:08.784Z,99896.31
2023-03-26T13:17:01.780Z,99905.55
2023-03-26T13:19:49.429Z,99913.14
2023-03-26T13:22:37.063Z,99920.20
2023-03-26T13:26:01.111Z,99911.20
2023-03-26T13:30:09.035Z,99900.08
2023-03-26T13:33:24.399Z,99897.60
2023-03-26T13:37:02.785Z,99903.55
2023-03-26T13:41:07.806Z,99893.30
2023-03-26T13:45:11.186Z,99880.91
2023-03-26T13:48:52.615Z,99871.61
2023-03-26T13:52:34.459Z,99863.11
2023-03-26T13:56:21.986Z,99857.41
2023-03-26T13:59:53.630Z,99852.36
2023-03-26T14:03:09.952Z,99849.08
2023-03-26T14:07:04.776Z,99843.08
2023-03-26T14:10:08.190Z,99846.33
2023-03-26T14:13:39.456Z,99844.77
2023-03-26T14:17:28.558Z,99835.85
2023-03-26T14:20:53.989Z,99833.99
2023-03-26T14:24:12.251Z,99836.06
2023-03-26T14:27:26.937Z,99839.86
2023-03-26T14:31:43.293Z,99839.52
2023-03-26T14:35:32.239Z,99838.59
2023-03-26T14:39:16.941Z,99825.90
2023-03-26T14:42:47.556Z,99822.23
2023-03-26T14:46:22.129Z,99825.88
2023-03-26T14:50:19.356Z,99827.64
2023-03-26T14:54:27.010Z,99814.37
2023-03-26T14:58:02.729Z,99806.65
2023-03-26T15:01:46.055Z,99799.58
2023-03-26T15:05:14.817Z,99802.34
2023-03-26T15:09:18.075Z,99797.46
2023-03-26T15:13:24.015Z,99791.40
2023-03-26T15:17:00.193Z,99790.63
2023-03-26T15:21:01.286Z,99790.86
2023-03-26T15:23:56.424Z,99795.52
2023-03-26T15:27:01.190Z,99803.73
2023-03-26T15:30:17.703Z,99806.10
2023-03-26T15:33:18.281Z,99806.17
2023-03-26T15:36:21.589Z,99805.85
2023-03-26T15:39:59.937Z,99808.77
2023-03-26T15:43:35.606Z,99811.98
2023-03-26T15:47:33.684Z,99816.67
2023-03-26T15:51:20.023Z,99814.11
2023-03-26T15:55:18.694Z,99808.25
2023-03-26T15:59:12.663Z,99807.27
2023-03-26T16:02:38.398Z,99806.27
2023-03-26T16:06:18.391Z,99800.63
2023-03-26T16:10:07.544Z,99803.48
2023-03-26T16:13:57.398Z,99799.91
2023-03-26T16:17:05.923Z,99802.13
2023-03-26T16:20:29.143Z,99800.80
2023-03-26T16:24:18.378Z,99808.48
2023-03-26T16:27:57.149Z,99807.01
2023-03-26T16:31:37.571Z,99809.40
2023-03-26T16:35:31.459Z,99821.75
2023-03-26T16:38:40.136Z,99826.61
2023-03-26T16:41:34.092Z,99829.16
2023-03-26T16:44:23.079Z,99832.21
2023-03-26T16:48:06.033Z,99834.27
2023-03-26T16:50:52.907Z,99840.20
2023-03-26T16:54:24.210Z,99842.67
2023-03-26T16:57:30.513Z,99846.08
2023-03-26T17:01:32.189Z,99845.69
2023-03-26T17:04:25.144Z,99845.63
2023-03-26T17:08:09.740Z,99851.74
2023-03-26T17:11:44.473Z,99847.34
2023-03-26T17:15:06.137Z,99846.58
2023-03-26T17:18:19.023Z,99852.40
2023-03-26T17:21:45.778Z,99853.42
2023-03-26T17:24:36.765Z,99859.38
2023-03-26T17:27:34.399Z,99866.64
2023-03-26T17:30:40.271Z,99866.71
2023-03-26T17:33:30.309Z,99869.34
2023-03-26T17:36:13.047Z,99871.04
2023-03-26T17:38:45.244Z,99870.52
2023-03-26T17:42:02.911Z,99868.65
2023-03-26T17:44:59.262Z,99870.79
2023-03-26T17:48:00.659Z,99877.08
2023-03-26T17:50:42.121Z,99875.47
2023-03-26T17:53:34.747Z,99880.34
2023-03-26T17:56:15.411Z,99878.95
2023-03-26T17:58:48.185Z,99878.55
2023-03-26T18:01:29.279Z,99884.77
2023-03-26T18:04:03.142Z,99885.61
2023-03-26T18:06:56.445Z,99885.95
2023-03-26T18:09:37.294Z,99888.20
2023-03-26T18:12:40.945Z,99891.09
2023-03-26T18:15:18.662Z,99895.34
2023-03-26T18:17:48.305Z,99898.24
2023-03-26T18:20:27.508Z,99904.54
2023-03-26T18:22:58.978Z,99907.33
2023-03-26T18:25:34.017Z,99911.72
2023-03-26T18:28:02.864Z,99913.26
2023-03-26T18:30:31.300Z,99915.97
2023-03-26T18:33:00.409Z,99914.25
2023-03-26T18:35:58.601Z,99911.95
2023-03-26T18:38:35.888Z,99917.98
2023-03-26T18:41:24.026Z,99915.38
2023-03-26T18:43:56.258Z,99915.84
2023-03-26T18:46:28.149Z,99912.66
2023-03-26T18:48:57.098Z,99914.10
2023-03-26T18:51:27.505Z,99914.58
2023-03-26T18:53:59.962Z,99913.39
2023-03-26T18:56:42.324Z,99913.01
2023-03-26T18:59:30.998Z,99912.73
2023-03-26T19:02:04.369Z,99910.22
2023-03-26T19:04:35.074Z,99910.78
2023-03-26T19:07:10.115Z,99913.52
2023-03-26T19:09:38.944Z,99912.92
2023-03-26T19:12:08.645Z,99915.06
2023-03-26T19:15:10.402Z,99918.33
2023-03-26T19:17:48.820Z,99914.70
2023-03-26T19:20:27.555Z,99918.63
2023-03-26T19:22:57.275Z,99921.15
2023-03-26T19:25:34.387Z,99921.81
2023-03-26T19:28:03.190Z,99921.55
2023-03-26T19:30:40.192Z,99920.63
2023-03-26T19:33:22.751Z,99921.64
2023-03-26T19:36:04.033Z,99920.69
2023-03-26T19:38:49.734Z,99916.33
2023-03-26T19:41:23.712Z,99914.79
2023-03-26T19:43:55.733Z,99914.80
2023-03-26T19:46:26.880Z,99913.97
2023-03-26T19:48:57.771Z,99912.20
2023-03-26T19:51:35.985Z,99909.33
2023-03-26T19:54:14.868Z,99914.33
2023-03-26T19:56:43.719Z,99914.02
2023-03-26T19:59:12.051Z,99910.30
2023-03-26T20:01:42.965Z,99909.06
2023-03-26T20:04:12.446Z,99914.00
2023-03-26T20:06:43.829Z,99915.03
2023-03-26T20:09:44.261Z,99914.50
2023-03-26T20:12:13.648Z,99912.05
2023-03-26T20:14:43.656Z,99912.94
2023-03-26T20:17:17.557Z,99915.63
2023-03-26T20:19:47.183Z,99916.61
2023-03-26T20:22:20.168Z,99918.33
2023-03-26T20:24:48.659Z,99921.50
2023-03-26T20:27:17.122Z,99918.28
2023-03-26T20:29:46.141Z,99916.68
2023-03-26T20:32:20.109Z,99917.17
2023-03-26T20:34:49.430Z,99919.42
2023-03-26T20:37:17.897Z,99913.41
2023-03-26T20:39:46.520Z,99906.30
2023-03-26T20:42:16.005Z,99901.92
2023-03-26T20:44:44.460Z,99903.57
2023-03-26T20:47:12.877Z,99900.29
2023-03-26T20:49:41.252Z,99902.75
2023-03-26T20:52:11.421Z,99900.89
2023-03-26T20:54:50.389Z,99897.66
2023-03-26T20:57:18.769Z,99894.32
2023-03-26T20:59:47.040Z,99893.89
2023-03-26T21:02:15.253Z,99896.13
2023-03-26T21:04:43.991Z,99893.66
2023-03-26T21:07:18.278Z,99889.94
2023-03-26T21:09:48.900Z,99888.17
2023-03-26T21:12:42.393Z,99885.56
2023-03-26T21:15:22.499Z,99882.98
2023-03-26T21:17:53.265Z,99886.22
2023-03-26T21:20:23.536Z,99876.81
2023-03-26T21:23:20.432Z,99878.40
2023-03-26T21:25:54.674Z,99873.02
2023-03-26T21:28:45.707Z,99867.71
2023-03-26T21:31:18.736Z,99866.55
2023-03-26T21:33:49.648Z,99866.16
2023-03-26T21:36:20.052Z,99863.80
2023-03-26T21:38:50.718Z,99863.43
2023-03-26T21:42:04.900Z,99864.33
2023-03-26T21:44:38.399Z,99868.60
2023-03-26T21:47:09.834Z,99869.05
2023-03-26T21:49:38.730Z,99867.69
2023-03-26T21:52:07.560Z,99870.20
2023-03-26T21:54:37.156Z,99872.89
2023-03-26T21:57:24.108Z,99877.64
2023-03-26T21:59:59.894Z,99879.71
2023-03-26T22:02:51.387Z,99882.66
2023-03-26T22:05:26.836Z,99883.86
2023-03-26T22:07:59.860Z,99884.84
2023-03-26T22:10:28.257Z,99886.62
2023-03-26T22:12:57.161Z,99887.33
2023-03-26T22:15:31.280Z,99882.90
2023-03-26T22:18:03.816Z,99880.32
2023-03-26T22:20:32.071Z,99880.97
2023-03-26T22:23:01.242Z,99880.48
2023-03-26T22:25:29.487Z,99877.90
2023-03-26T22:27:57.682Z,99879.20
2023-03-26T22:30:25.916Z,99878.04
2023-03-26T22:32:54.144Z,99876.60
2023-03-26T22:35:22.554Z,99872.70
2023-03-26T22:37:51.582Z,99870.39
2023-03-26T22:40:20.683Z,99865.80
2023-03-26T22:42:48.922Z,99863.17
2023-03-26T22:45:17.383Z,99858.41
2023-03-26T22:47:45.624Z,99856.48
2023-03-26T22:50:13.830Z,99851.38
2023-03-26T22:52:42.123Z,99846.19
2023-03-26T22:55:11.796Z,99846.52
2023-03-26T22:57:41.496Z,99846.48
2023-03-26T23:00:19.721Z,99845.80
2023-03-26T23:02:48.054Z,99847.77
2023-03-26T23:05:19.024Z,99848.83
2023-03-26T23:07:49.068Z,99853.48
2023-03-26T23:10:17.292Z,99852.13
2023-03-26T23:12:45.845Z,99847.11
2023-03-26T23:15:14.288Z,99847.44
2023-03-26T23:17:42.585Z,99848.85
2023-03-26T23:20:15.561Z,99851.58
2023-03-26T23:22:44.224Z,99850.44
2023-03-26T23:25:12.850Z,99854.15
2023-03-26T23:27:41.638Z,99850.92
2023-03-26T23:30:11.091Z,99842.25
2023-03-26T23:32:39.429Z,99841.68
2023-03-26T23:35:08.049Z,99841.52
2023-03-26T23:37:36.282Z,99843.73
2023-03-26T23:40:10.552Z,99849.20
2023-03-26T23:42:39.060Z,99847.13
2023-03-26T23:45:08.734Z,99848.87
2023-03-26T23:47:37.579Z,99841.41
2023-03-26T23:50:06.810Z,99834.41
2023-03-26T23:52:35.023Z,99834.05
2023-03-26T23:55:06.150Z,99829.05
2023-03-26T23:57:34.356Z,99823.30
